Edson, South Dakota
Current Conditions -  °F | °C
As of 5:58 PM on Monday 24 Nov 2014 (Local Time) from KRCA Reporting Station
Broken Clouds Broken Clouds  
Wind Chill: 18°   Ceiling: 6000
Heat Index: 28°   Visibility: 10mi
Dew Point: 24°   Wind: 13mph
Humidity: 83%   Direction: 330°NNW
Pressure: 30.05"   Gusts: NA
Location:  44.8511°N, 102.128°W
Report Text: KRCA 250058Z 33011KT 10SM SCT047 BKN060 BKN110 M02/M05 A3005 RMK AO2A SLP218 T10201046 $
Loading
Personal Weather Stations






























Interactive Weather Map New forecast layout! Learn more

10-Day Weather Forecast

Advertisements
Track Severe Weather on mobile